sensor_id;sensor_type;location;lat;lon;timestamp;pressure;altitude;pressure_sealevel;temperature;humidity
36284;BME280;56085;48.910;9.478;2022-10-31T09:55:39;98483.06;;;19.70;55.25
36284;BME280;56085;48.910;9.478;2022-10-31T09:58:13;98485.84;;;18.83;59.43
36284;BME280;56085;48.910;9.478;2022-10-31T10:00:40;98481.38;;;18.40;61.86
36284;BME280;56085;48.910;9.478;2022-10-31T10:05:53;98486.00;;;17.98;64.34
36284;BME280;56085;48.910;9.478;2022-10-31T10:08:23;98491.19;;;17.92;65.34
36284;BME280;56085;48.910;9.478;2022-10-31T10:28:35;98474.94;;;18.43;64.90
36284;BME280;56085;48.910;9.478;2022-10-31T10:30:42;98468.25;;;18.82;64.44
36284;BME280;56085;48.910;9.478;2022-10-31T10:33:15;98471.41;;;18.92;63.41
36284;BME280;56085;48.910;9.478;2022-10-31T10:35:52;98466.53;;;18.99;62.90
36284;BME280;56085;48.910;9.478;2022-10-31T10:38:28;98463.59;;;19.14;61.89
36284;BME280;56085;48.910;9.478;2022-10-31T10:40:58;98461.50;;;19.25;60.81
36284;BME280;56085;48.910;9.478;2022-10-31T10:43:34;98462.13;;;19.40;60.18
36284;BME280;56085;48.910;9.478;2022-10-31T10:49:31;98459.81;;;19.69;59.08
36284;BME280;56085;48.910;9.478;2022-10-31T10:52:10;98451.94;;;19.92;58.77
36284;BME280;56085;48.910;9.478;2022-10-31T10:57:36;98449.19;;;20.19;58.60
36284;BME280;56085;48.910;9.478;2022-10-31T11:03:01;98439.31;;;20.07;58.36
36284;BME280;56085;48.910;9.478;2022-10-31T11:05:47;98428.47;;;20.09;58.75
36284;BME280;56085;48.910;9.478;2022-10-31T11:08:25;98421.91;;;20.19;58.66
36284;BME280;56085;48.910;9.478;2022-10-31T11:13:43;98423.66;;;19.79;59.27
36284;BME280;56085;48.910;9.478;2022-10-31T11:16:12;98418.88;;;19.76;59.49
36284;BME280;56085;48.910;9.478;2022-10-31T11:18:44;98414.22;;;19.62;58.73
36284;BME280;56085;48.910;9.478;2022-10-31T11:21:25;98414.16;;;19.65;59.16
36284;BME280;56085;48.910;9.478;2022-10-31T11:26:40;98415.59;;;19.46;59.10
36284;BME280;56085;48.910;9.478;2022-10-31T11:29:23;98408.94;;;19.33;59.17
36284;BME280;56085;48.910;9.478;2022-10-31T11:31:52;98406.19;;;19.29;59.10
36284;BME280;56085;48.910;9.478;2022-10-31T11:34:41;98401.28;;;19.41;59.48
36284;BME280;56085;48.910;9.478;2022-10-31T11:37:15;98394.66;;;19.58;59.38
36284;BME280;56085;48.910;9.478;2022-10-31T11:39:44;98391.56;;;19.80;59.26
36284;BME280;56085;48.910;9.478;2022-10-31T11:42:11;98382.63;;;20.19;58.62
36284;BME280;56085;48.910;9.478;2022-10-31T11:44:41;98382.34;;;20.61;57.86
36284;BME280;56085;48.910;9.478;2022-10-31T11:47:13;98374.00;;;21.65;56.03
36284;BME280;56085;48.910;9.478;2022-10-31T11:49:45;98362.81;;;22.51;54.07
36284;BME280;56085;48.910;9.478;2022-10-31T11:52:27;98355.38;;;22.90;52.48
36284;BME280;56085;48.910;9.478;2022-10-31T11:55:02;98351.63;;;22.64;51.48
36284;BME280;56085;48.910;9.478;2022-10-31T11:57:50;98351.72;;;22.44;51.30
36284;BME280;56085;48.910;9.478;2022-10-31T12:02:46;98347.47;;;21.46;51.89
36284;BME280;56085;48.910;9.478;2022-10-31T12:05:18;98341.56;;;21.60;52.32
36284;BME280;56085;48.910;9.478;2022-10-31T12:07:46;98338.19;;;21.86;52.57
36284;BME280;56085;48.910;9.478;2022-10-31T12:10:12;98328.41;;;22.43;52.33
36284;BME280;56085;48.910;9.478;2022-10-31T12:12:49;98326.56;;;22.99;51.31
36284;BME280;56085;48.910;9.478;2022-10-31T12:15:34;98324.44;;;23.03;50.78
36284;BME280;56085;48.910;9.478;2022-10-31T12:21:14;98324.63;;;22.96;49.88
36284;BME280;56085;48.910;9.478;2022-10-31T12:24:07;98321.78;;;23.12;49.14
36284;BME280;56085;48.910;9.478;2022-10-31T12:32:16;98321.78;;;22.01;49.83
36284;BME280;56085;48.910;9.478;2022-10-31T12:47:06;98297.75;;;21.59;50.67
36284;BME280;56085;48.910;9.478;2022-10-31T12:49:48;98289.06;;;21.14;51.69
36284;BME280;56085;48.910;9.478;2022-10-31T12:52:28;98285.31;;;20.80;53.08
36284;BME280;56085;48.910;9.478;2022-10-31T12:57:32;98272.44;;;20.35;55.12
36284;BME280;56085;48.910;9.478;2022-10-31T13:00:05;98278.34;;;20.21;56.31
36284;BME280;56085;48.910;9.478;2022-10-31T13:02:41;98277.28;;;20.11;57.31
36284;BME280;56085;48.910;9.478;2022-10-31T13:07:49;98276.53;;;19.83;59.09
36284;BME280;56085;48.910;9.478;2022-10-31T13:10:29;98265.13;;;19.67;59.81
36284;BME280;56085;48.910;9.478;2022-10-31T13:13:00;98262.56;;;19.49;60.42
36284;BME280;56085;48.910;9.478;2022-10-31T13:15:30;98257.44;;;19.44;61.03
36284;BME280;56085;48.910;9.478;2022-10-31T13:18:03;98246.09;;;19.24;61.83
36284;BME280;56085;48.910;9.478;2022-10-31T13:20:45;98249.34;;;19.18;62.83
36284;BME280;56085;48.910;9.478;2022-10-31T13:23:24;98235.06;;;19.09;63.38
36284;BME280;56085;48.910;9.478;2022-10-31T13:25:54;98244.84;;;18.94;63.87
36284;BME280;56085;48.910;9.478;2022-10-31T13:28:44;98243.75;;;18.84;64.53
36284;BME280;56085;48.910;9.478;2022-10-31T13:31:11;98244.13;;;18.90;64.29
36284;BME280;56085;48.910;9.478;2022-10-31T13:33:49;98231.69;;;18.91;64.55
36284;BME280;56085;48.910;9.478;2022-10-31T13:36:39;98221.31;;;18.91;64.52
36284;BME280;56085;48.910;9.478;2022-10-31T13:44:22;98219.06;;;18.75;65.26
36284;BME280;56085;48.910;9.478;2022-10-31T13:46:56;98213.41;;;18.79;65.55
36284;BME280;56085;48.910;9.478;2022-10-31T13:52:04;98211.00;;;18.81;65.92
36284;BME280;56085;48.910;9.478;2022-10-31T13:54:34;98203.13;;;19.03;65.36
36284;BME280;56085;48.910;9.478;2022-10-31T13:57:00;98206.84;;;19.24;65.01
36284;BME280;56085;48.910;9.478;2022-10-31T13:59:27;98204.75;;;19.59;64.08
36284;BME280;56085;48.910;9.478;2022-10-31T14:01:59;98204.69;;;21.87;61.63
36284;BME280;56085;48.910;9.478;2022-10-31T14:06:59;98205.94;;;26.05;53.06
36284;BME280;56085;48.910;9.478;2022-10-31T14:09:33;98197.59;;;25.30;50.99
36284;BME280;56085;48.910;9.478;2022-10-31T14:12:07;98200.03;;;27.81;48.63
36284;BME280;56085;48.910;9.478;2022-10-31T14:14:40;98203.19;;;27.31;47.11
36284;BME280;56085;48.910;9.478;2022-10-31T14:17:16;98206.91;;;25.71;46.99
36284;BME280;56085;48.910;9.478;2022-10-31T14:19:42;98203.44;;;24.60;47.46
36284;BME280;56085;48.910;9.478;2022-10-31T14:22:20;98211.25;;;24.08;47.73
36284;BME280;56085;48.910;9.478;2022-10-31T14:24:46;98196.03;;;23.53;48.62
36284;BME280;56085;48.910;9.478;2022-10-31T14:29:48;98167.00;;;22.59;50.07
36284;BME280;56085;48.910;9.478;2022-10-31T14:32:18;98163.44;;;22.42;51.13
36284;BME280;56085;48.910;9.478;2022-10-31T14:34:55;98170.38;;;22.08;52.07
36284;BME280;56085;48.910;9.478;2022-10-31T14:51:03;98176.19;;;21.52;54.14
36284;BME280;56085;48.910;9.478;2022-10-31T14:53:45;98169.66;;;21.38;54.50
36284;BME280;56085;48.910;9.478;2022-10-31T14:56:11;98168.16;;;20.97;54.76
36284;BME280;56085;48.910;9.478;2022-10-31T14:58:46;98177.66;;;20.43;55.77
36284;BME280;56085;48.910;9.478;2022-10-31T15:01:25;98172.28;;;20.09;56.88
36284;BME280;56085;48.910;9.478;2022-10-31T15:03:53;98172.66;;;19.87;57.89
36284;BME280;56085;48.910;9.478;2022-10-31T15:06:21;98170.75;;;19.57;58.73
36284;BME280;56085;48.910;9.478;2022-10-31T15:08:53;98171.63;;;19.50;59.34
36284;BME280;56085;48.910;9.478;2022-10-31T15:11:24;98172.47;;;19.19;59.95
36284;BME280;56085;48.910;9.478;2022-10-31T15:13:55;98182.19;;;19.11;60.66
36284;BME280;56085;48.910;9.478;2022-10-31T15:16:26;98167.81;;;19.09;61.19
36284;BME280;56085;48.910;9.478;2022-10-31T15:18:56;98163.81;;;19.10;61.71
36284;BME280;56085;48.910;9.478;2022-10-31T15:21:24;98157.47;;;19.06;62.20
36284;BME280;56085;48.910;9.478;2022-10-31T15:23:52;98154.06;;;18.91;62.53
36284;BME280;56085;48.910;9.478;2022-10-31T15:26:20;98159.81;;;18.77;63.16
36284;BME280;56085;48.910;9.478;2022-10-31T15:28:46;98159.22;;;18.62;64.09
36284;BME280;56085;48.910;9.478;2022-10-31T15:31:22;98155.78;;;18.47;64.99
36284;BME280;56085;48.910;9.478;2022-10-31T15:33:49;98162.28;;;18.37;65.40
36284;BME280;56085;48.910;9.478;2022-10-31T15:36:23;98160.47;;;18.19;66.23
36284;BME280;56085;48.910;9.478;2022-10-31T15:38:49;98157.03;;;18.04;66.70
36284;BME280;56085;48.910;9.478;2022-10-31T15:43:49;98160.84;;;17.79;68.12
36284;BME280;56085;48.910;9.478;2022-10-31T15:46:14;98157.47;;;17.54;68.82
36284;BME280;56085;48.910;9.478;2022-10-31T15:48:44;98159.59;;;17.35;69.79
36284;BME280;56085;48.910;9.478;2022-10-31T15:51:10;98153.78;;;17.12;70.76
36284;BME280;56085;48.910;9.478;2022-10-31T15:53:42;98163.47;;;16.89;71.46
36284;BME280;56085;48.910;9.478;2022-10-31T15:56:13;98166.31;;;16.78;72.54
36284;BME280;56085;48.910;9.478;2022-10-31T15:58:46;98158.41;;;16.55;73.43
36284;BME280;56085;48.910;9.478;2022-10-31T16:01:23;98162.47;;;16.36;74.35
36284;BME280;56085;48.910;9.478;2022-10-31T16:04:00;98169.66;;;16.26;75.03
36284;BME280;56085;48.910;9.478;2022-10-31T16:06:26;98158.94;;;16.21;75.66
36284;BME280;56085;48.910;9.478;2022-10-31T16:08:51;98164.94;;;16.09;76.33
36284;BME280;56085;48.910;9.478;2022-10-31T16:11:23;98160.56;;;16.00;76.69
36284;BME280;56085;48.910;9.478;2022-10-31T16:14:00;98161.38;;;15.86;77.39
36284;BME280;56085;48.910;9.478;2022-10-31T16:16:27;98165.38;;;15.82;78.15
36284;BME280;56085;48.910;9.478;2022-10-31T16:18:55;98171.31;;;15.73;78.32
36284;BME280;56085;48.910;9.478;2022-10-31T16:21:26;98169.31;;;15.66;78.54
36284;BME280;56085;48.910;9.478;2022-10-31T16:23:56;98174.50;;;15.46;79.40
36284;BME280;56085;48.910;9.478;2022-10-31T16:26:23;98166.53;;;15.38;79.75
36284;BME280;56085;48.910;9.478;2022-10-31T16:28:54;98158.56;;;15.32;80.28
36284;BME280;56085;48.910;9.478;2022-10-31T16:31:38;98167.72;;;15.29;80.20
36284;BME280;56085;48.910;9.478;2022-10-31T16:34:12;98160.94;;;15.27;80.59
36284;BME280;56085;48.910;9.478;2022-10-31T16:36:39;98165.28;;;15.17;81.11
36284;BME280;56085;48.910;9.478;2022-10-31T16:39:05;98166.88;;;15.07;81.20
36284;BME280;56085;48.910;9.478;2022-10-31T16:41:32;98176.81;;;14.94;81.59
36284;BME280;56085;48.910;9.478;2022-10-31T16:44:00;98171.97;;;14.76;82.21
36284;BME280;56085;48.910;9.478;2022-10-31T16:46:27;98170.72;;;14.63;82.55
36284;BME280;56085;48.910;9.478;2022-10-31T16:48:53;98171.09;;;14.61;83.30
36284;BME280;56085;48.910;9.478;2022-10-31T16:51:19;98163.94;;;14.60;83.68
36284;BME280;56085;48.910;9.478;2022-10-31T16:53:44;98166.28;;;14.55;84.07
36284;BME280;56085;48.910;9.478;2022-10-31T16:56:31;98155.91;;;14.48;84.30
36284;BME280;56085;48.910;9.478;2022-10-31T16:58:59;98159.09;;;14.46;84.46
36284;BME280;56085;48.910;9.478;2022-10-31T17:01:26;98159.47;;;14.41;84.98
36284;BME280;56085;48.910;9.478;2022-10-31T17:03:52;98159.44;;;14.34;85.09
36284;BME280;56085;48.910;9.478;2022-10-31T17:06:17;98161.75;;;14.25;85.56
36284;BME280;56085;48.910;9.478;2022-10-31T17:08:43;98161.75;;;14.21;86.13
36284;BME280;56085;48.910;9.478;2022-10-31T17:11:20;98163.28;;;14.11;86.63
36284;BME280;56085;48.910;9.478;2022-10-31T17:13:46;98166.44;;;14.10;86.77
36284;BME280;56085;48.910;9.478;2022-10-31T17:16:13;98152.16;;;14.08;87.07
36284;BME280;56085;48.910;9.478;2022-10-31T17:18:39;98158.50;;;14.05;87.39
36284;BME280;56085;48.910;9.478;2022-10-31T17:21:04;98147.72;;;14.00;87.23
36284;BME280;56085;48.910;9.478;2022-10-31T17:23:31;98136.56;;;13.92;87.50
36284;BME280;56085;48.910;9.478;2022-10-31T17:25:57;98136.91;;;13.84;88.00
36284;BME280;56085;48.910;9.478;2022-10-31T17:28:23;98130.56;;;13.83;88.32
36284;BME280;56085;48.910;9.478;2022-10-31T17:30:50;98131.34;;;13.80;88.35
36284;BME280;56085;48.910;9.478;2022-10-31T17:33:17;98122.19;;;13.76;88.81
36284;BME280;56085;48.910;9.478;2022-10-31T17:35:43;98118.16;;;13.70;88.44
36284;BME280;56085;48.910;9.478;2022-10-31T17:38:09;98116.50;;;13.61;88.58
36284;BME280;56085;48.910;9.478;2022-10-31T17:40:36;98114.91;;;13.57;89.14
36284;BME280;56085;48.910;9.478;2022-10-31T17:43:02;98120.78;;;13.48;89.60
36284;BME280;56085;48.910;9.478;2022-10-31T17:45:27;98121.69;;;13.18;89.48
36284;BME280;56085;48.910;9.478;2022-10-31T17:47:53;98119.34;;;13.24;89.40
36284;BME280;56085;48.910;9.478;2022-10-31T17:50:20;98117.72;;;13.16;89.47
36284;BME280;56085;48.910;9.478;2022-10-31T17:52:46;98108.56;;;13.12;89.74
36284;BME280;56085;48.910;9.478;2022-10-31T17:55:12;98106.69;;;13.26;89.92
36284;BME280;56085;48.910;9.478;2022-10-31T17:57:38;98111.47;;;13.30;90.31
36284;BME280;56085;48.910;9.478;2022-10-31T18:00:05;98126.91;;;13.23;90.96
36284;BME280;56085;48.910;9.478;2022-10-31T18:02:31;98132.28;;;13.05;91.07
36284;BME280;56085;48.910;9.478;2022-10-31T18:04:56;98128.19;;;12.92;91.20
36284;BME280;56085;48.910;9.478;2022-10-31T18:07:22;98118.91;;;12.77;91.43
36284;BME280;56085;48.910;9.478;2022-10-31T18:09:47;98125.63;;;12.76;91.70
36284;BME280;56085;48.910;9.478;2022-10-31T18:12:13;98131.94;;;12.73;91.70
36284;BME280;56085;48.910;9.478;2022-10-31T18:14:39;98124.81;;;12.72;92.21
36284;BME280;56085;48.910;9.478;2022-10-31T18:17:05;98127.88;;;12.63;92.49
36284;BME280;56085;48.910;9.478;2022-10-31T18:19:30;98125.03;;;12.56;93.25
36284;BME280;56085;48.910;9.478;2022-10-31T18:21:56;98120.69;;;12.58;93.19
36284;BME280;56085;48.910;9.478;2022-10-31T18:24:21;98117.88;;;12.55;93.36
36284;BME280;56085;48.910;9.478;2022-10-31T18:26:46;98116.91;;;12.40;93.74
36284;BME280;56085;48.910;9.478;2022-10-31T18:29:13;98110.03;;;12.27;93.79
36284;BME280;56085;48.910;9.478;2022-10-31T18:31:38;98104.88;;;12.25;93.78
36284;BME280;56085;48.910;9.478;2022-10-31T18:34:03;98117.53;;;12.26;94.15
36284;BME280;56085;48.910;9.478;2022-10-31T18:36:29;98121.03;;;12.19;94.58
36284;BME280;56085;48.910;9.478;2022-10-31T18:38:54;98110.69;;;12.16;94.53
36284;BME280;56085;48.910;9.478;2022-10-31T18:41:19;98098.69;;;12.09;94.71
36284;BME280;56085;48.910;9.478;2022-10-31T18:43:45;98100.22;;;12.02;94.77
36284;BME280;56085;48.910;9.478;2022-10-31T18:46:14;98095.84;;;12.01;95.13
36284;BME280;56085;48.910;9.478;2022-10-31T18:48:41;98102.56;;;12.00;95.41
36284;BME280;56085;48.910;9.478;2022-10-31T18:51:10;98106.50;;;11.99;95.73
36284;BME280;56085;48.910;9.478;2022-10-31T18:53:36;98096.66;;;12.02;95.78
36284;BME280;56085;48.910;9.478;2022-10-31T18:56:06;98090.25;;;11.98;96.22
36284;BME280;56085;48.910;9.478;2022-10-31T18:58:31;98102.50;;;11.97;96.69
36284;BME280;56085;48.910;9.478;2022-10-31T19:00:57;98083.97;;;12.01;96.42
36284;BME280;56085;48.910;9.478;2022-10-31T19:03:22;98083.56;;;11.99;96.91
36284;BME280;56085;48.910;9.478;2022-10-31T19:05:53;98070.50;;;11.99;97.14
36284;BME280;56085;48.910;9.478;2022-10-31T19:08:20;98058.28;;;12.04;97.20
36284;BME280;56085;48.910;9.478;2022-10-31T19:10:45;98038.94;;;12.08;97.08
36284;BME280;56085;48.910;9.478;2022-10-31T19:13:10;98022.75;;;12.13;97.04
36284;BME280;56085;48.910;9.478;2022-10-31T19:15:36;98012.09;;;12.15;96.96
36284;BME280;56085;48.910;9.478;2022-10-31T19:18:02;98003.03;;;12.22;96.79
36284;BME280;56085;48.910;9.478;2022-10-31T19:20:27;98013.34;;;12.21;96.92
36284;BME280;56085;48.910;9.478;2022-10-31T19:22:53;98017.38;;;12.28;96.70
36284;BME280;56085;48.910;9.478;2022-10-31T19:25:18;98017.72;;;12.22;96.77
36284;BME280;56085;48.910;9.478;2022-10-31T19:27:44;98024.63;;;12.05;96.77
36284;BME280;56085;48.910;9.478;2022-10-31T19:30:10;98028.47;;;11.94;96.27
36284;BME280;56085;48.910;9.478;2022-10-31T19:32:35;98014.41;;;12.10;96.00
36284;BME280;56085;48.910;9.478;2022-10-31T19:35:01;98025.69;;;12.28;96.13
36284;BME280;56085;48.910;9.478;2022-10-31T19:37:27;98027.75;;;12.38;96.28
36284;BME280;56085;48.910;9.478;2022-10-31T19:39:52;98020.34;;;12.46;96.60
36284;BME280;56085;48.910;9.478;2022-10-31T19:42:17;98039.53;;;12.28;96.36
36284;BME280;56085;48.910;9.478;2022-10-31T19:44:42;98055.69;;;12.18;96.20
36284;BME280;56085;48.910;9.478;2022-10-31T19:47:08;98082.59;;;12.18;96.34
36284;BME280;56085;48.910;9.478;2022-10-31T19:49:34;98085.31;;;12.14;96.06
36284;BME280;56085;48.910;9.478;2022-10-31T19:52:00;98111.28;;;12.02;96.34
36284;BME280;56085;48.910;9.478;2022-10-31T19:54:25;98123.81;;;12.19;96.35
36284;BME280;56085;48.910;9.478;2022-10-31T19:56:50;98095.41;;;12.30;96.94
36284;BME280;56085;48.910;9.478;2022-10-31T19:59:15;98098.59;;;12.32;97.51
36284;BME280;56085;48.910;9.478;2022-10-31T20:01:41;98113.63;;;12.31;97.40
36284;BME280;56085;48.910;9.478;2022-10-31T20:04:06;98119.53;;;12.29;97.52
36284;BME280;56085;48.910;9.478;2022-10-31T20:06:40;98150.69;;;12.19;97.79
36284;BME280;56085;48.910;9.478;2022-10-31T20:09:08;98153.44;;;12.15;98.20
36284;BME280;56085;48.910;9.478;2022-10-31T20:11:35;98150.41;;;12.28;98.21
36284;BME280;56085;48.910;9.478;2022-10-31T20:14:02;98155.31;;;12.38;98.42
36284;BME280;56085;48.910;9.478;2022-10-31T20:16:28;98130.78;;;12.40;98.77
36284;BME280;56085;48.910;9.478;2022-10-31T20:18:55;98141.13;;;12.43;98.85
36284;BME280;56085;48.910;9.478;2022-10-31T20:21:22;98158.50;;;12.40;99.12
36284;BME280;56085;48.910;9.478;2022-10-31T20:23:54;98163.63;;;12.38;99.14
36284;BME280;56085;48.910;9.478;2022-10-31T20:26:19;98144.22;;;12.38;99.17
36284;BME280;56085;48.910;9.478;2022-10-31T20:28:45;98153.34;;;12.38;99.17
36284;BME280;56085;48.910;9.478;2022-10-31T20:31:13;98148.56;;;12.35;99.17
36284;BME280;56085;48.910;9.478;2022-10-31T20:33:39;98163.63;;;12.38;99.52
36284;BME280;56085;48.910;9.478;2022-10-31T20:36:06;98150.09;;;12.33;99.31
36284;BME280;56085;48.910;9.478;2022-10-31T20:38:32;98160.03;;;12.34;99.44
36284;BME280;56085;48.910;9.478;2022-10-31T20:41:03;98168.75;;;12.36;99.10
36284;BME280;56085;48.910;9.478;2022-10-31T20:43:30;98182.13;;;12.30;99.23
36284;BME280;56085;48.910;9.478;2022-10-31T20:46:00;98171.44;;;12.29;99.06
36284;BME280;56085;48.910;9.478;2022-10-31T20:48:27;98165.09;;;12.28;98.95
36284;BME280;56085;48.910;9.478;2022-10-31T20:51:01;98169.06;;;12.31;98.99
36284;BME280;56085;48.910;9.478;2022-10-31T20:53:27;98175.81;;;12.30;98.75
36284;BME280;56085;48.910;9.478;2022-10-31T20:56:04;98165.09;;;12.28;98.52
36284;BME280;56085;48.910;9.478;2022-10-31T20:58:30;98167.50;;;12.30;98.64
36284;BME280;56085;48.910;9.478;2022-10-31T21:00:56;98152.88;;;12.33;98.52
36284;BME280;56085;48.910;9.478;2022-10-31T21:03:22;98158.03;;;12.34;98.33
36284;BME280;56085;48.910;9.478;2022-10-31T21:05:56;98158.03;;;12.34;98.17
36284;BME280;56085;48.910;9.478;2022-10-31T21:08:22;98164.81;;;12.37;97.94
36284;BME280;56085;48.910;9.478;2022-10-31T21:10:48;98163.22;;;12.36;97.73
36284;BME280;56085;48.910;9.478;2022-10-31T21:13:14;98159.28;;;12.37;97.70
36284;BME280;56085;48.910;9.478;2022-10-31T21:15:39;98158.81;;;12.35;97.96
36284;BME280;56085;48.910;9.478;2022-10-31T21:18:05;98153.66;;;12.33;97.91
36284;BME280;56085;48.910;9.478;2022-10-31T21:20:30;98150.41;;;12.28;97.61
36284;BME280;56085;48.910;9.478;2022-10-31T21:22:55;98158.31;;;12.26;97.84
36284;BME280;56085;48.910;9.478;2022-10-31T21:25:20;98149.56;;;12.23;97.82
36284;BME280;56085;48.910;9.478;2022-10-31T21:27:46;98150.31;;;12.20;97.42
36284;BME280;56085;48.910;9.478;2022-10-31T21:30:11;98160.03;;;12.07;97.54
36284;BME280;56085;48.910;9.478;2022-10-31T21:32:36;98148.38;;;11.94;97.58
36284;BME280;56085;48.910;9.478;2022-10-31T21:35:02;98149.06;;;11.87;97.61
36284;BME280;56085;48.910;9.478;2022-10-31T21:37:27;98150.00;;;11.72;97.72
36284;BME280;56085;48.910;9.478;2022-10-31T21:39:53;98141.28;;;11.70;97.73
36284;BME280;56085;48.910;9.478;2022-10-31T21:42:20;98149.09;;;11.64;97.71
36284;BME280;56085;48.910;9.478;2022-10-31T21:44:48;98151.75;;;11.57;97.57
36284;BME280;56085;48.910;9.478;2022-10-31T21:47:13;98144.13;;;11.50;98.10
36284;BME280;56085;48.910;9.478;2022-10-31T21:49:39;98165.06;;;11.48;98.31
36284;BME280;56085;48.910;9.478;2022-10-31T21:52:04;98162.31;;;11.48;98.42
36284;BME280;56085;48.910;9.478;2022-10-31T21:54:30;98167.03;;;11.47;98.97
36284;BME280;56085;48.910;9.478;2022-10-31T21:56:58;98165.38;;;11.43;98.81
36284;BME280;56085;48.910;9.478;2022-10-31T21:59:24;98155.00;;;11.36;98.87
36284;BME280;56085;48.910;9.478;2022-10-31T22:01:50;98152.22;;;11.36;99.04
36284;BME280;56085;48.910;9.478;2022-10-31T22:04:17;98167.63;;;11.37;99.06
36284;BME280;56085;48.910;9.478;2022-10-31T22:06:42;98164.00;;;11.33;99.18
36284;BME280;56085;48.910;9.478;2022-10-31T22:09:11;98164.34;;;11.28;99.37
36284;BME280;56085;48.910;9.478;2022-10-31T22:11:38;98168.25;;;11.27;99.45
36284;BME280;56085;48.910;9.478;2022-10-31T22:14:04;98170.97;;;11.23;99.67
36284;BME280;56085;48.910;9.478;2022-10-31T22:16:33;98161.44;;;11.21;99.95
36284;BME280;56085;48.910;9.478;2022-10-31T22:18:59;98162.59;;;11.20;99.91
36284;BME280;56085;48.910;9.478;2022-10-31T22:21:29;98160.19;;;11.18;99.96
36284;BME280;56085;48.910;9.478;2022-10-31T22:23:56;98154.66;;;11.18;100.00
36284;BME280;56085;48.910;9.478;2022-10-31T22:26:22;98160.66;;;11.20;100.00
36284;BME280;56085;48.910;9.478;2022-10-31T22:28:50;98161.44;;;11.21;100.00
36284;BME280;56085;48.910;9.478;2022-10-31T22:31:20;98152.75;;;11.22;100.00
36284;BME280;56085;48.910;9.478;2022-10-31T22:33:46;98148.47;;;11.25;100.00
36284;BME280;56085;48.910;9.478;2022-10-31T22:36:14;98148.84;;;11.23;100.00
36284;BME280;56085;48.910;9.478;2022-10-31T22:38:40;98142.44;;;11.19;100.00
36284;BME280;56085;48.910;9.478;2022-10-31T22:41:08;98141.75;;;11.03;100.00
36284;BME280;56085;48.910;9.478;2022-10-31T22:43:34;98131.50;;;11.03;100.00
36284;BME280;56085;48.910;9.478;2022-10-31T22:46:01;98136.22;;;11.03;100.00
36284;BME280;56085;48.910;9.478;2022-10-31T22:48:43;98138.91;;;10.99;100.00
36284;BME280;56085;48.910;9.478;2022-10-31T22:51:10;98142.28;;;10.89;100.00
36284;BME280;56085;48.910;9.478;2022-10-31T22:53:37;98145.00;;;10.85;100.00
36284;BME280;56085;48.910;9.478;2022-10-31T22:56:04;98137.88;;;10.84;100.00
36284;BME280;56085;48.910;9.478;2022-10-31T22:58:31;98144.41;;;10.76;100.00
36284;BME280;56085;48.910;9.478;2022-10-31T23:00:57;98140.34;;;10.70;100.00
36284;BME280;56085;48.910;9.478;2022-10-31T23:03:23;98144.38;;;10.72;100.00
36284;BME280;56085;48.910;9.478;2022-10-31T23:05:59;98147.91;;;10.73;100.00
36284;BME280;56085;48.910;9.478;2022-10-31T23:08:26;98147.56;;;10.74;100.00
36284;BME280;56085;48.910;9.478;2022-10-31T23:10:52;98149.56;;;10.77;100.00
36284;BME280;56085;48.910;9.478;2022-10-31T23:13:18;98156.72;;;10.78;100.00
36284;BME280;56085;48.910;9.478;2022-10-31T23:16:09;98144.38;;;10.72;100.00
36284;BME280;56085;48.910;9.478;2022-10-31T23:18:35;98154.28;;;10.73;100.00
36284;BME280;56085;48.910;9.478;2022-10-31T23:21:03;98155.84;;;10.74;100.00
36284;BME280;56085;48.910;9.478;2022-10-31T23:23:32;98162.09;;;10.71;100.00
36284;BME280;56085;48.910;9.478;2022-10-31T23:25:57;98154.19;;;10.70;100.00
36284;BME280;56085;48.910;9.478;2022-10-31T23:28:41;98144.28;;;10.69;100.00
36284;BME280;56085;48.910;9.478;2022-10-31T23:31:06;98145.38;;;10.64;100.00
36284;BME280;56085;48.910;9.478;2022-10-31T23:33:32;98145.84;;;10.66;100.00
36284;BME280;56085;48.910;9.478;2022-10-31T23:35:57;98152.88;;;10.63;100.00
36284;BME280;56085;48.910;9.478;2022-10-31T23:38:22;98147.22;;;10.56;100.00
36284;BME280;56085;48.910;9.478;2022-10-31T23:40:47;98155.41;;;10.53;100.00
36284;BME280;56085;48.910;9.478;2022-10-31T23:43:13;98146.19;;;10.45;100.00
36284;BME280;56085;48.910;9.478;2022-10-31T23:45:41;98143.00;;;10.43;100.00
36284;BME280;56085;48.910;9.478;2022-10-31T23:48:06;98146.19;;;10.45;100.00
36284;BME280;56085;48.910;9.478;2022-10-31T23:50:31;98161.97;;;10.44;100.00
36284;BME280;56085;48.910;9.478;2022-10-31T23:52:57;98150.47;;;10.42;100.00
36284;BME280;56085;48.910;9.478;2022-10-31T23:55:22;98153.97;;;10.39;100.00
36284;BME280;56085;48.910;9.478;2022-10-31T23:57:49;98157.91;;;10.38;100.00
